Time;durP1;ratioP1;P1;durP2;ratioP2;P2;SDS_P1;SDS_P2;PMS_P1;PMS_P2;Temp;Humidity;BMP_temperature;BMP_pressure;BME280_temperature;BME280_humidity;BME280_pressure;Samples;Min_cycle;Max_cycle;Signal;HPM_P1;HPM_P2
2022/03/21 00:02:04;;;;;;;22.13;3.22;;;;;;;;;;5013216;28;20548;-48
2022/03/21 00:04:31;;;;;;;17.17;3.85;;;;;;;;;;4995669;28;20029;-52
2022/03/21 00:06:58;;;;;;;26.05;4.95;;;;;;;;;;5009910;28;20476;-49
2022/03/21 00:09:25;;;;;;;22.83;4.60;;;;;;;;;;5001212;28;20042;-46
2022/03/21 00:11:53;;;;;;;26.35;4.50;;;;;;;;;;4998937;28;20042;-48
2022/03/21 00:14:20;;;;;;;27.27;4.75;;;;;;;;;;5002289;28;20032;-47
2022/03/21 00:16:48;;;;;;;21.50;4.22;;;;;;;;;;4999695;28;20031;-51
2022/03/21 00:19:15;;;;;;;18.95;4.40;;;;;;;;;;5002018;28;20207;-47
2022/03/21 00:21:42;;;;;;;26.98;5.00;;;;;;;;;;4997449;28;20033;-51
2022/03/21 00:24:09;;;;;;;34.20;5.50;;;;;;;;;;5004181;28;20024;-46
2022/03/21 00:26:36;;;;;;;22.92;4.55;;;;;;;;;;5005249;28;20282;-51
2022/03/21 00:29:03;;;;;;;22.35;4.03;;;;;;;;;;4978465;28;20037;-45
2022/03/21 00:31:30;;;;;;;27.77;4.65;;;;;;;;;;4995149;28;20037;-46
2022/03/21 00:33:57;;;;;;;21.73;4.63;;;;;;;;;;4999336;28;20033;-46
2022/03/21 00:36:24;;;;;;;26.17;4.05;;;;;;;;;;5010123;28;20025;-45
2022/03/21 00:38:51;;;;;;;22.52;4.45;;;;;;;;;;5012891;28;20033;-48
2022/03/21 00:41:18;;;;;;;24.75;4.72;;;;;;;;;;5004932;28;20034;-46
2022/03/21 00:43:45;;;;;;;18.73;4.32;;;;;;;;;;4993986;28;20038;-43
2022/03/21 00:46:12;;;;;;;27.80;5.75;;;;;;;;;;4996286;28;20038;-45
2022/03/21 00:48:39;;;;;;;45.63;8.70;;;;;;;;;;4996176;28;20018;-48
2022/03/21 00:51:06;;;;;;;45.53;11.65;;;;;;;;;;4993017;28;20471;-47
2022/03/21 00:53:33;;;;;;;61.85;14.55;;;;;;;;;;4993797;28;20050;-51
2022/03/21 00:56:00;;;;;;;66.05;15.20;;;;;;;;;;4992373;28;20112;-48
2022/03/21 00:58:27;;;;;;;68.47;15.38;;;;;;;;;;4993525;28;20042;-50
2022/03/21 01:00:56;;;;;;;61.88;16.00;;;;;;;;;;4993018;28;20027;-45
2022/03/21 01:03:23;;;;;;;58.97;15.02;;;;;;;;;;4993117;28;20030;-51
2022/03/21 01:05:50;;;;;;;70.03;15.43;;;;;;;;;;4992796;28;20029;-45
2022/03/21 01:08:17;;;;;;;55.30;14.88;;;;;;;;;;4995540;28;20041;-46
2022/03/21 01:10:44;;;;;;;62.17;16.20;;;;;;;;;;4992673;28;20041;-46
2022/03/21 01:13:11;;;;;;;65.15;14.55;;;;;;;;;;4992707;28;20074;-53
2022/03/21 01:15:38;;;;;;;54.90;15.25;;;;;;;;;;4993244;28;20030;-45
2022/03/21 01:18:05;;;;;;;48.63;14.07;;;;;;;;;;4992570;28;20190;-47
2022/03/21 01:20:33;;;;;;;50.45;14.32;;;;;;;;;;4993042;28;20069;-46
2022/03/21 01:22:59;;;;;;;46.83;13.48;;;;;;;;;;4992947;28;20448;-45
2022/03/21 01:25:26;;;;;;;51.85;14.35;;;;;;;;;;4992541;28;20037;-49
2022/03/21 01:27:54;;;;;;;46.03;13.48;;;;;;;;;;4992456;28;20031;-50
2022/03/21 01:30:21;;;;;;;40.33;12.35;;;;;;;;;;5012905;28;20122;-46
2022/03/21 01:32:48;;;;;;;60.90;12.27;;;;;;;;;;5011113;28;20042;-45
2022/03/21 01:35:16;;;;;;;41.55;11.88;;;;;;;;;;5012530;28;20045;-47
2022/03/21 01:37:44;;;;;;;47.13;11.93;;;;;;;;;;5012120;28;20646;-49
2022/03/21 01:40:11;;;;;;;53.97;12.85;;;;;;;;;;5013058;28;20088;-48
2022/03/21 01:42:41;;;;;;;54.45;11.75;;;;;;;;;;5012496;28;20152;-50
2022/03/21 01:45:08;;;;;;;52.38;11.25;;;;;;;;;;5012428;28;20029;-45
2022/03/21 01:47:35;;;;;;;45.08;12.07;;;;;;;;;;4995495;28;20030;-45
2022/03/21 01:50:04;;;;;;;45.03;11.25;;;;;;;;;;5012169;28;20515;-47
2022/03/21 01:52:31;;;;;;;44.38;11.70;;;;;;;;;;5013195;28;20156;-51
2022/03/21 01:57:44;;;;;;;35.75;10.18;;;;;;;;;;5013020;28;20168;-48
2022/03/21 02:00:11;;;;;;;38.55;9.95;;;;;;;;;;5013042;28;20030;-45
2022/03/21 02:02:38;;;;;;;40.08;10.70;;;;;;;;;;5012181;28;20334;-46
2022/03/21 02:05:06;;;;;;;38.60;11.07;;;;;;;;;;5012329;28;20092;-46
2022/03/21 02:07:33;;;;;;;35.92;9.30;;;;;;;;;;5012912;28;20037;-46
2022/03/21 02:10:02;;;;;;;37.05;9.30;;;;;;;;;;5012285;28;20025;-49
2022/03/21 02:12:29;;;;;;;32.05;9.10;;;;;;;;;;5012197;28;20392;-45
2022/03/21 02:14:56;;;;;;;33.50;9.35;;;;;;;;;;5013018;28;20041;-46
2022/03/21 02:17:25;;;;;;;37.85;9.07;;;;;;;;;;5012697;28;20110;-48
2022/03/21 02:19:52;;;;;;;29.33;7.90;;;;;;;;;;5011968;28;20044;-45
2022/03/21 02:22:26;;;;;;;33.40;7.70;;;;;;;;;;5012508;28;20052;-48
2022/03/21 02:25:01;;;;;;;29.17;8.15;;;;;;;;;;5011290;28;20648;-48
2022/03/21 02:27:29;;;;;;;30.95;8.00;;;;;;;;;;5012752;28;20029;-47
2022/03/21 02:29:56;;;;;;;23.10;7.28;;;;;;;;;;5011732;28;20096;-48
2022/03/21 02:32:24;;;;;;;27.65;8.05;;;;;;;;;;5012345;28;20056;-47
2022/03/21 02:34:51;;;;;;;25.63;6.75;;;;;;;;;;5012019;28;20053;-50
2022/03/21 02:37:19;;;;;;;24.23;7.63;;;;;;;;;;5011870;28;20026;-49
2022/03/21 02:39:46;;;;;;;24.17;7.32;;;;;;;;;;5011943;28;20088;-50
2022/03/21 02:42:14;;;;;;;26.90;7.05;;;;;;;;;;5012555;28;20096;-50
2022/03/21 02:44:41;;;;;;;23.67;6.20;;;;;;;;;;5011298;28;20033;-47
2022/03/21 02:47:09;;;;;;;30.08;7.25;;;;;;;;;;5012117;28;20065;-50
2022/03/21 02:49:37;;;;;;;27.90;6.50;;;;;;;;;;5012105;28;20021;-50
2022/03/21 02:52:05;;;;;;;26.10;5.50;;;;;;;;;;5011729;28;20042;-49
2022/03/21 02:54:33;;;;;;;22.77;5.88;;;;;;;;;;5012104;28;20030;-46
2022/03/21 02:57:01;;;;;;;22.42;6.45;;;;;;;;;;5011653;28;20416;-47
2022/03/21 02:59:28;;;;;;;18.70;5.18;;;;;;;;;;5012301;28;20026;-47
2022/03/21 03:01:55;;;;;;;19.15;5.32;;;;;;;;;;5011569;28;20034;-48
2022/03/21 03:04:23;;;;;;;19.13;5.38;;;;;;;;;;5012055;28;20034;-46
2022/03/21 03:06:50;;;;;;;21.20;5.78;;;;;;;;;;5011929;28;20030;-48
2022/03/21 03:09:17;;;;;;;20.80;5.30;;;;;;;;;;5011767;28;20030;-48
2022/03/21 03:11:44;;;;;;;17.05;4.95;;;;;;;;;;5011810;28;20083;-44
2022/03/21 03:14:11;;;;;;;14.73;4.50;;;;;;;;;;5012023;28;20029;-46
2022/03/21 03:16:39;;;;;;;19.80;4.75;;;;;;;;;;5012227;28;20156;-45
2022/03/21 03:19:06;;;;;;;19.00;5.15;;;;;;;;;;5011978;28;20423;-50
2022/03/21 03:21:38;;;;;;;14.40;4.45;;;;;;;;;;5012009;28;20103;-47
2022/03/21 03:24:06;;;;;;;17.13;4.55;;;;;;;;;;5011805;28;20033;-47
2022/03/21 03:26:33;;;;;;;15.10;4.55;;;;;;;;;;4994497;28;20050;-49
2022/03/21 03:29:00;;;;;;;17.08;4.30;;;;;;;;;;5011592;28;20037;-46
2022/03/21 03:31:27;;;;;;;16.20;3.85;;;;;;;;;;5011600;28;20113;-47
2022/03/21 03:33:54;;;;;;;14.40;3.83;;;;;;;;;;5011636;28;20033;-50
2022/03/21 03:36:22;;;;;;;14.07;3.75;;;;;;;;;;5011108;28;20041;-48
2022/03/21 03:38:49;;;;;;;18.10;4.05;;;;;;;;;;4993828;28;20677;-47
2022/03/21 03:41:16;;;;;;;12.60;3.90;;;;;;;;;;5011301;28;20062;-46
2022/03/21 03:43:43;;;;;;;22.63;3.65;;;;;;;;;;5011668;28;20030;-48
2022/03/21 03:46:10;;;;;;;10.45;3.35;;;;;;;;;;5011504;28;20034;-43
2022/03/21 03:48:38;;;;;;;10.45;3.45;;;;;;;;;;5011982;28;20030;-46
2022/03/21 03:51:06;;;;;;;12.60;3.45;;;;;;;;;;5011063;28;20041;-46
2022/03/21 03:53:34;;;;;;;11.02;3.40;;;;;;;;;;5011775;28;20040;-48
2022/03/21 03:56:01;;;;;;;9.18;2.95;;;;;;;;;;5012095;28;20558;-45
2022/03/21 03:58:28;;;;;;;10.68;3.42;;;;;;;;;;5014162;28;20026;-47
2022/03/21 04:00:56;;;;;;;10.13;3.45;;;;;;;;;;5014251;28;20472;-47
2022/03/21 04:06:08;;;;;;;11.00;2.80;;;;;;;;;;5014912;28;20519;-47
2022/03/21 04:08:35;;;;;;;9.77;3.08;;;;;;;;;;5014491;28;20092;-47
2022/03/21 04:11:02;;;;;;;10.98;2.95;;;;;;;;;;5014671;28;20100;-44
2022/03/21 04:13:29;;;;;;;12.55;3.00;;;;;;;;;;5014592;28;20381;-46
2022/03/21 04:15:56;;;;;;;9.07;2.78;;;;;;;;;;5015123;28;20053;-45
2022/03/21 04:18:23;;;;;;;11.55;2.90;;;;;;;;;;5014463;28;20084;-46
2022/03/21 04:20:50;;;;;;;7.60;2.78;;;;;;;;;;5014349;28;20061;-48
2022/03/21 04:23:18;;;;;;;9.20;2.53;;;;;;;;;;5014227;28;20045;-49
2022/03/21 04:25:45;;;;;;;6.45;2.20;;;;;;;;;;5014446;28;20037;-45
2022/03/21 04:28:14;;;;;;;9.18;2.50;;;;;;;;;;5014531;28;20097;-45
2022/03/21 04:30:41;;;;;;;7.28;2.30;;;;;;;;;;5013925;28;20416;-46
2022/03/21 04:33:09;;;;;;;6.10;2.28;;;;;;;;;;5014094;28;20057;-46
2022/03/21 04:35:37;;;;;;;7.40;2.00;;;;;;;;;;5013974;28;20029;-46
2022/03/21 04:38:12;;;;;;;9.70;2.40;;;;;;;;;;5014507;28;20053;-49
2022/03/21 04:40:50;;;;;;;8.30;2.33;;;;;;;;;;5013723;28;20431;-47
2022/03/21 04:43:18;;;;;;;6.65;2.08;;;;;;;;;;5014301;28;20038;-45
2022/03/21 04:45:46;;;;;;;9.50;2.30;;;;;;;;;;5014426;28;20415;-44
2022/03/21 04:48:14;;;;;;;8.32;2.30;;;;;;;;;;5014113;28;20026;-48
2022/03/21 04:50:41;;;;;;;6.80;2.20;;;;;;;;;;5013397;28;20026;-48
2022/03/21 04:53:10;;;;;;;7.10;1.90;;;;;;;;;;5014030;28;20400;-46
2022/03/21 04:55:38;;;;;;;7.30;2.00;;;;;;;;;;5013763;28;20472;-45
2022/03/21 04:58:05;;;;;;;5.97;2.10;;;;;;;;;;4996782;28;20041;-45
2022/03/21 05:00:32;;;;;;;8.48;2.22;;;;;;;;;;5013076;28;20036;-46
2022/03/21 05:03:01;;;;;;;8.98;2.08;;;;;;;;;;5014049;28;20446;-48
2022/03/21 05:05:29;;;;;;;3.85;1.42;;;;;;;;;;5013151;28;20044;-48
2022/03/21 05:07:56;;;;;;;6.10;1.70;;;;;;;;;;5013502;28;20033;-45
2022/03/21 05:10:23;;;;;;;4.70;1.80;;;;;;;;;;5013524;28;20033;-49
2022/03/21 05:12:50;;;;;;;7.43;1.63;;;;;;;;;;5013581;28;20392;-44
2022/03/21 05:15:18;;;;;;;10.73;1.52;;;;;;;;;;5014077;28;20034;-47
2022/03/21 05:17:45;;;;;;;6.60;1.58;;;;;;;;;;5013027;28;20028;-47
2022/03/21 05:20:21;;;;;;;6.80;1.90;;;;;;;;;;5013816;28;20030;-46
2022/03/21 05:31:06;;;;;;;6.13;1.70;;;;;;;;;;5012977;28;20483;-48
2022/03/21 05:36:22;;;;;;;5.57;1.70;;;;;;;;;;5013900;28;20049;-45
2022/03/21 05:38:50;;;;;;;3.72;1.50;;;;;;;;;;5013030;28;20030;-46
2022/03/21 05:41:18;;;;;;;4.65;1.45;;;;;;;;;;5012663;28;20037;-45
2022/03/21 05:43:45;;;;;;;7.22;1.58;;;;;;;;;;5012778;28;20036;-48
2022/03/21 05:46:12;;;;;;;4.63;1.30;;;;;;;;;;5013172;28;20025;-44
2022/03/21 05:48:51;;;;;;;5.47;1.20;;;;;;;;;;5012800;28;20096;-47
2022/03/21 05:51:19;;;;;;;5.90;1.40;;;;;;;;;;5012447;28;20082;-45
2022/03/21 05:53:46;;;;;;;4.60;1.20;;;;;;;;;;5013170;28;20049;-47
2022/03/21 05:56:14;;;;;;;6.60;1.30;;;;;;;;;;5012402;28;20117;-48
2022/03/21 05:58:41;;;;;;;2.90;1.17;;;;;;;;;;5013279;28;20510;-45
2022/03/21 06:01:11;;;;;;;3.90;1.00;;;;;;;;;;5012924;28;20534;-45
2022/03/21 06:03:38;;;;;;;3.70;1.00;;;;;;;;;;5012322;28;20504;-45
2022/03/21 06:06:05;;;;;;;5.85;1.60;;;;;;;;;;5013035;28;20025;-47
2022/03/21 06:08:32;;;;;;;4.55;1.17;;;;;;;;;;5012552;28;20037;-46
2022/03/21 06:11:08;;;;;;;2.22;1.00;;;;;;;;;;5012779;28;20108;-46
2022/03/21 06:13:35;;;;;;;4.93;1.15;;;;;;;;;;5012879;28;20034;-44
2022/03/21 06:16:04;;;;;;;6.22;1.40;;;;;;;;;;5012525;28;20026;-44
2022/03/21 06:18:32;;;;;;;3.45;1.25;;;;;;;;;;5012347;28;20388;-46
2022/03/21 06:20:59;;;;;;;3.95;1.20;;;;;;;;;;5012088;28;20030;-48
2022/03/21 06:23:27;;;;;;;5.50;0.98;;;;;;;;;;5012480;28;20038;-47
2022/03/21 06:25:55;;;;;;;3.42;1.00;;;;;;;;;;5012801;28;20060;-47
2022/03/21 06:28:22;;;;;;;4.60;0.95;;;;;;;;;;5011800;28;20033;-46
2022/03/21 06:30:53;;;;;;;3.45;1.02;;;;;;;;;;5012756;28;20484;-47
2022/03/21 06:33:22;;;;;;;4.45;1.00;;;;;;;;;;5011889;28;20042;-48
2022/03/21 06:35:49;;;;;;;4.85;1.00;;;;;;;;;;5012530;28;20029;-50
2022/03/21 06:38:16;;;;;;;2.78;0.90;;;;;;;;;;5012158;28;20411;-50
2022/03/21 06:40:43;;;;;;;3.80;1.20;;;;;;;;;;5011560;28;20507;-45
2022/03/21 06:43:11;;;;;;;4.22;1.15;;;;;;;;;;5012068;28;20050;-46
2022/03/21 06:45:38;;;;;;;2.38;0.88;;;;;;;;;;5012142;28;20510;-48
2022/03/21 06:48:05;;;;;;;2.85;0.80;;;;;;;;;;5012515;28;20026;-47
2022/03/21 06:50:32;;;;;;;4.15;1.00;;;;;;;;;;5012532;28;20388;-46
2022/03/21 06:53:00;;;;;;;2.97;0.85;;;;;;;;;;5012418;28;20037;-48
2022/03/21 06:55:27;;;;;;;5.18;1.10;;;;;;;;;;5011823;28;20034;-44
2022/03/21 06:57:55;;;;;;;2.58;1.00;;;;;;;;;;5011824;28;20022;-49
2022/03/21 07:00:22;;;;;;;3.00;0.82;;;;;;;;;;5012246;28;20080;-44
2022/03/21 07:02:49;;;;;;;3.92;1.00;;;;;;;;;;5011338;28;20563;-45
2022/03/21 07:05:16;;;;;;;2.78;0.88;;;;;;;;;;5012381;28;20109;-46
2022/03/21 07:07:43;;;;;;;3.00;0.90;;;;;;;;;;5011597;28;20104;-45
2022/03/21 07:10:10;;;;;;;4.10;1.00;;;;;;;;;;5012602;28;20026;-46
2022/03/21 07:15:47;;;;;;;2.42;0.65;;;;;;;;;;5013314;28;20084;-45
2022/03/21 07:21:24;;;;;;;3.83;0.88;;;;;;;;;;5013333;28;20543;-48
2022/03/21 07:27:01;;;;;;;3.53;1.00;;;;;;;;;;5013255;28;20660;-45
2022/03/21 07:29:28;;;;;;;3.80;0.95;;;;;;;;;;5012426;28;20053;-48
2022/03/21 07:31:57;;;;;;;2.28;0.90;;;;;;;;;;5013703;28;20108;-47
2022/03/21 07:34:24;;;;;;;2.63;0.80;;;;;;;;;;5014987;28;20037;-46
2022/03/21 07:36:51;;;;;;;2.05;0.75;;;;;;;;;;5015970;28;20491;-47
2022/03/21 07:39:18;;;;;;;3.15;0.90;;;;;;;;;;5014886;28;20037;-45
2022/03/21 07:41:46;;;;;;;2.40;0.90;;;;;;;;;;5015825;28;20029;-47
2022/03/21 07:47:17;;;;;;;3.72;0.73;;;;;;;;;;5015476;28;20436;-48
2022/03/21 07:47:18;;;;;;;2.67;0.73;;;;;;;;;;5014459;28;20057;-46
2022/03/21 07:49:46;;;;;;;6.53;1.05;;;;;;;;;;5015052;28;20058;-45
2022/03/21 07:52:13;;;;;;;2.75;0.70;;;;;;;;;;5015011;28;20037;-49
2022/03/21 07:54:40;;;;;;;1.58;0.60;;;;;;;;;;5014751;28;20031;-48
2022/03/21 07:57:07;;;;;;;2.08;0.65;;;;;;;;;;5015540;28;20041;-49
2022/03/21 07:59:35;;;;;;;1.35;0.63;;;;;;;;;;5015076;28;20041;-49
2022/03/21 08:02:03;;;;;;;2.08;0.75;;;;;;;;;;5014617;28;20111;-46
2022/03/21 08:04:31;;;;;;;2.85;0.70;;;;;;;;;;5014367;28;20033;-45
2022/03/21 08:06:59;;;;;;;3.45;1.08;;;;;;;;;;5014518;28;20088;-50
2022/03/21 08:09:30;;;;;;;2.10;0.75;;;;;;;;;;5014176;28;20026;-48
2022/03/21 08:11:57;;;;;;;1.73;0.65;;;;;;;;;;5014850;28;20217;-48
2022/03/21 08:14:25;;;;;;;3.08;0.90;;;;;;;;;;5015002;28;20054;-46
2022/03/21 08:16:52;;;;;;;3.20;0.73;;;;;;;;;;5014492;28;20037;-45
2022/03/21 08:19:24;;;;;;;2.75;0.90;;;;;;;;;;5014732;28;20022;-45
2022/03/21 08:21:53;;;;;;;3.90;1.07;;;;;;;;;;5015216;28;20411;-45
2022/03/21 08:24:21;;;;;;;3.20;0.68;;;;;;;;;;5014460;28;20095;-45
2022/03/21 08:26:48;;;;;;;1.70;0.70;;;;;;;;;;5014370;28;20031;-48
2022/03/21 08:29:15;;;;;;;2.70;0.60;;;;;;;;;;5183427;23;20085;-47
2022/03/21 08:31:43;;;;;;;2.58;0.80;;;;;;;;;;4995134;28;20029;-47
2022/03/21 08:34:10;;;;;;;2.55;0.77;;;;;;;;;;4994712;28;20034;-44
2022/03/21 08:36:37;;;;;;;2.83;0.80;;;;;;;;;;4994719;28;20026;-47
2022/03/21 08:39:04;;;;;;;2.30;0.80;;;;;;;;;;4993141;28;20512;-44
2022/03/21 08:41:31;;;;;;;2.35;0.80;;;;;;;;;;4994912;28;20084;-45
2022/03/21 08:43:58;;;;;;;2.38;0.82;;;;;;;;;;4992963;28;20460;-44
2022/03/21 08:46:26;;;;;;;2.70;0.85;;;;;;;;;;4994578;28;20034;-48
2022/03/21 08:51:38;;;;;;;3.45;0.70;;;;;;;;;;4994614;28;20057;-47
2022/03/21 08:54:07;;;;;;;2.25;0.65;;;;;;;;;;4994352;28;20022;-47
2022/03/21 08:56:34;;;;;;;3.05;0.65;;;;;;;;;;5000044;28;20096;-46
2022/03/21 08:59:02;;;;;;;2.95;0.60;;;;;;;;;;5013470;28;20129;-45
2022/03/21 09:01:29;;;;;;;2.85;0.80;;;;;;;;;;5014370;28;20033;-49
2022/03/21 09:03:56;;;;;;;2.22;0.73;;;;;;;;;;5013401;28;20048;-45
2022/03/21 09:06:23;;;;;;;3.10;0.70;;;;;;;;;;5013851;28;20057;-48
2022/03/21 09:08:51;;;;;;;3.58;0.80;;;;;;;;;;5013574;28;20037;-45
2022/03/21 09:11:19;;;;;;;2.08;0.70;;;;;;;;;;5013960;28;20025;-47
2022/03/21 09:13:46;;;;;;;2.00;0.70;;;;;;;;;;5013598;28;20435;-46
2022/03/21 09:16:13;;;;;;;3.72;0.70;;;;;;;;;;4996389;28;20022;-45
2022/03/21 09:18:41;;;;;;;2.10;0.77;;;;;;;;;;5013132;28;20033;-48
2022/03/21 09:21:09;;;;;;;1.10;0.50;;;;;;;;;;5013365;28;20026;-45
2022/03/21 09:23:37;;;;;;;3.38;0.57;;;;;;;;;;5013316;28;20058;-45
2022/03/21 09:26:04;;;;;;;1.95;0.70;;;;;;;;;;5013062;28;20040;-49
2022/03/21 09:28:32;;;;;;;2.47;0.60;;;;;;;;;;5012855;28;20065;-45
2022/03/21 09:30:59;;;;;;;1.58;0.55;;;;;;;;;;5013694;28;20014;-45
2022/03/21 09:33:28;;;;;;;1.95;0.60;;;;;;;;;;5013413;28;21159;-45
2022/03/21 09:35:55;;;;;;;1.83;0.60;;;;;;;;;;5012776;28;20117;-45
2022/03/21 09:38:22;;;;;;;3.65;0.70;;;;;;;;;;5012949;28;20391;-44
2022/03/21 09:40:49;;;;;;;1.55;0.57;;;;;;;;;;5013259;28;20148;-45
2022/03/21 09:43:16;;;;;;;2.05;0.65;;;;;;;;;;4994499;28;20029;-45
2022/03/21 09:45:43;;;;;;;4.57;0.60;;;;;;;;;;5013174;28;20018;-45
2022/03/21 09:48:16;;;;;;;2.78;0.60;;;;;;;;;;5013086;28;20036;-47
2022/03/21 09:50:45;;;;;;;2.38;0.52;;;;;;;;;;5013138;28;20056;-44
2022/03/21 09:53:16;;;;;;;3.83;0.60;;;;;;;;;;5012465;28;20022;-48
2022/03/21 09:55:44;;;;;;;2.22;0.82;;;;;;;;;;5012023;28;20512;-50
2022/03/21 09:58:11;;;;;;;3.55;0.90;;;;;;;;;;5012358;28;20112;-47
2022/03/21 10:00:39;;;;;;;3.95;0.80;;;;;;;;;;5012354;28;20484;-48
2022/03/21 10:03:07;;;;;;;2.58;0.68;;;;;;;;;;5012350;28;20466;-48
2022/03/21 10:05:35;;;;;;;2.60;0.68;;;;;;;;;;5012854;28;20046;-49
2022/03/21 10:08:11;;;;;;;3.10;0.80;;;;;;;;;;5012473;28;20456;-49
2022/03/21 10:10:38;;;;;;;1.50;0.60;;;;;;;;;;5012406;28;20029;-49
2022/03/21 10:13:09;;;;;;;4.32;0.80;;;;;;;;;;5012469;28;20104;-49
2022/03/21 10:15:37;;;;;;;3.08;0.75;;;;;;;;;;5012915;28;20129;-44
2022/03/21 10:18:08;;;;;;;1.58;0.73;;;;;;;;;;5012262;28;20149;-48
2022/03/21 10:20:36;;;;;;;2.67;0.50;;;;;;;;;;5013089;28;20379;-46
2022/03/21 10:23:35;;;;;;;2.75;0.60;;;;;;;;;;5012251;28;20053;-50
2022/03/21 10:26:02;;;;;;;2.20;0.70;;;;;;;;;;4969997;28;20040;-45
2022/03/21 10:28:36;;;;;;;4.68;0.98;;;;;;;;;;5011685;28;20569;-47
2022/03/21 10:31:04;;;;;;;2.67;0.60;;;;;;;;;;5012773;28;20029;-51
2022/03/21 10:33:31;;;;;;;2.90;0.60;;;;;;;;;;5012538;28;20105;-46
2022/03/21 10:36:04;;;;;;;5.68;1.00;;;;;;;;;;5012148;28;20044;-50
2022/03/21 10:38:32;;;;;;;3.78;0.70;;;;;;;;;;4994393;28;20032;-50
2022/03/21 10:41:06;;;;;;;2.05;0.75;;;;;;;;;;5005642;28;20027;-48
2022/03/21 10:43:33;;;;;;;2.58;0.73;;;;;;;;;;4992116;28;20023;-45
2022/03/21 10:46:01;;;;;;;2.95;0.65;;;;;;;;;;4992258;28;20033;-49
2022/03/21 10:48:29;;;;;;;3.85;0.88;;;;;;;;;;4992718;28;20027;-45
2022/03/21 10:50:57;;;;;;;5.53;0.68;;;;;;;;;;5002536;28;20432;-49
2022/03/21 10:53:33;;;;;;;3.55;0.80;;;;;;;;;;5030816;28;20034;-47
2022/03/21 10:56:09;;;;;;;6.63;0.63;;;;;;;;;;5030947;28;20105;-43
2022/03/21 10:58:47;;;;;;;3.17;0.77;;;;;;;;;;5030798;28;20068;-44
2022/03/21 11:01:25;;;;;;;4.68;0.80;;;;;;;;;;5031118;28;20112;-44
2022/03/21 11:03:56;;;;;;;5.43;0.70;;;;;;;;;;5031446;28;20021;-44
2022/03/21 11:06:24;;;;;;;3.58;1.35;;;;;;;;;;5032063;28;20025;-45
2022/03/21 11:08:52;;;;;;;2.22;0.80;;;;;;;;;;5034639;28;20052;-45
2022/03/21 11:11:20;;;;;;;4.68;0.75;;;;;;;;;;5034313;28;20472;-45
2022/03/21 11:13:47;;;;;;;3.83;1.00;;;;;;;;;;5034802;28;20115;-45
2022/03/21 11:16:18;;;;;;;4.45;1.10;;;;;;;;;;5017488;28;20021;-47
2022/03/21 11:18:48;;;;;;;2.53;0.93;;;;;;;;;;5013266;28;20072;-46
2022/03/21 11:21:16;;;;;;;7.70;0.90;;;;;;;;;;5013893;28;20032;-45
2022/03/21 11:23:43;;;;;;;3.92;0.90;;;;;;;;;;5015579;28;20030;-48
2022/03/21 11:26:30;;;;;;;3.03;0.60;;;;;;;;;;5015215;28;20038;-49
2022/03/21 11:29:04;;;;;;;2.95;0.95;;;;;;;;;;5014346;28;20060;-44
2022/03/21 11:31:37;;;;;;;4.35;0.90;;;;;;;;;;4996912;28;20026;-45
2022/03/21 11:34:04;;;;;;;3.17;0.90;;;;;;;;;;5014640;28;20506;-46
2022/03/21 11:36:32;;;;;;;7.47;0.90;;;;;;;;;;4997425;28;20026;-46
2022/03/21 11:39:00;;;;;;;5.68;1.02;;;;;;;;;;5014448;28;20117;-47
2022/03/21 11:41:30;;;;;;;8.45;0.70;;;;;;;;;;5013695;28;20026;-46
2022/03/21 11:44:15;;;;;;;4.93;1.00;;;;;;;;;;5014618;28;20033;-48
2022/03/21 11:46:45;;;;;;;4.55;0.80;;;;;;;;;;5014687;28;20072;-45
2022/03/21 11:49:21;;;;;;;7.40;1.00;;;;;;;;;;5014889;28;20488;-49
2022/03/21 11:51:55;;;;;;;5.78;0.80;;;;;;;;;;5012756;28;20033;-45
2022/03/21 11:54:40;;;;;;;7.30;0.95;;;;;;;;;;5014491;28;20025;-45
2022/03/21 11:57:09;;;;;;;8.15;1.00;;;;;;;;;;4997066;28;20488;-45
2022/03/21 11:59:36;;;;;;;5.53;0.95;;;;;;;;;;5014218;28;20109;-48
2022/03/21 12:02:03;;;;;;;8.18;1.05;;;;;;;;;;5013359;28;20022;-45
2022/03/21 12:04:33;;;;;;;10.88;2.08;;;;;;;;;;5013773;28;20053;-47
2022/03/21 12:07:15;;;;;;;8.13;2.17;;;;;;;;;;5014699;28;20032;-45
2022/03/21 12:09:43;;;;;;;12.20;3.35;;;;;;;;;;5013911;28;20100;-49
2022/03/21 12:12:10;;;;;;;14.82;3.10;;;;;;;;;;5014253;28;20022;-44
2022/03/21 12:14:45;;;;;;;9.95;3.17;;;;;;;;;;5013374;28;20121;-45
2022/03/21 12:17:12;;;;;;;11.13;4.05;;;;;;;;;;5014440;28;20069;-46
2022/03/21 12:19:51;;;;;;;11.75;3.80;;;;;;;;;;5013716;28;20029;-45
2022/03/21 12:22:33;;;;;;;10.68;3.65;;;;;;;;;;4999972;28;20511;-45
2022/03/21 12:25:10;;;;;;;14.15;4.22;;;;;;;;;;4993379;28;20062;-47
2022/03/21 12:27:47;;;;;;;12.52;3.83;;;;;;;;;;5008599;28;20033;-48
2022/03/21 12:30:20;;;;;;;17.67;3.85;;;;;;;;;;5009741;28;20132;-50
2022/03/21 12:32:57;;;;;;;13.63;4.05;;;;;;;;;;5022984;28;20104;-45
2022/03/21 12:35:45;;;;;;;11.15;4.65;;;;;;;;;;5033315;28;20435;-47
2022/03/21 12:38:14;;;;;;;15.05;4.70;;;;;;;;;;5033326;28;20108;-47
2022/03/21 12:40:50;;;;;;;13.45;5.03;;;;;;;;;;5032423;28;20055;-47
2022/03/21 12:43:24;;;;;;;13.32;4.75;;;;;;;;;;5016955;28;20461;-44
2022/03/21 12:45:56;;;;;;;15.75;4.82;;;;;;;;;;5012657;28;20032;-48
2022/03/21 12:48:29;;;;;;;18.30;5.00;;;;;;;;;;5013801;28;20065;-44
2022/03/21 12:50:55;;;;;;;;;;;;;;;;;;5013658;28;20116;-46
2022/03/21 12:53:23;;;;;;;22.08;5.55;;;;;;;;;;5013851;28;19914;-45
2022/03/21 12:56:03;;;;;;;21.92;5.97;;;;;;;;;;5012515;28;20056;-47
2022/03/21 12:58:30;;;;;;;18.00;5.55;;;;;;;;;;5013622;28;20026;-44
2022/03/21 13:01:02;;;;;;;18.77;5.82;;;;;;;;;;5013700;28;20036;-46
2022/03/21 13:03:29;;;;;;;18.40;5.70;;;;;;;;;;5016306;28;20022;-44
2022/03/21 13:11:29;;;;;;;22.05;6.57;;;;;;;;;;5033825;28;20411;-44
2022/03/21 13:14:00;;;;;;;18.77;6.28;;;;;;;;;;5032852;28;20025;-45
2022/03/21 13:16:28;;;;;;;17.75;5.95;;;;;;;;;;5032592;28;20040;-44
2022/03/21 13:18:56;;;;;;;19.52;6.68;;;;;;;;;;5032706;28;20021;-44
2022/03/21 13:21:24;;;;;;;18.25;6.05;;;;;;;;;;5014267;28;20025;-45
2022/03/21 13:23:52;;;;;;;23.48;6.55;;;;;;;;;;5033171;28;20611;-44
2022/03/21 13:26:26;;;;;;;17.90;7.07;;;;;;;;;;5033172;28;20045;-44
2022/03/21 13:28:54;;;;;;;15.63;6.38;;;;;;;;;;5031301;28;20022;-44
2022/03/21 13:31:22;;;;;;;16.60;6.63;;;;;;;;;;5032385;28;20108;-46
2022/03/21 13:33:56;;;;;;;23.60;8.02;;;;;;;;;;5032708;28;20487;-46
2022/03/21 13:36:23;;;;;;;24.15;7.07;;;;;;;;;;5031861;28;20025;-46
2022/03/21 13:39:08;;;;;;;28.75;8.70;;;;;;;;;;5032746;28;20757;-45
2022/03/21 13:41:51;;;;;;;33.97;8.73;;;;;;;;;;5031842;28;20491;-45
2022/03/21 13:44:19;;;;;;;28.55;10.07;;;;;;;;;;5031460;28;20097;-46
2022/03/21 13:47:01;;;;;;;30.80;9.25;;;;;;;;;;5032304;28;20021;-45
2022/03/21 13:49:46;;;;;;;25.60;8.98;;;;;;;;;;5031632;28;20111;-45
2022/03/21 13:52:33;;;;;;;34.72;9.90;;;;;;;;;;5013995;28;20029;-46
2022/03/21 13:55:00;;;;;;;31.58;8.95;;;;;;;;;;5023603;28;20521;-46
2022/03/21 13:57:27;;;;;;;29.90;9.25;;;;;;;;;;5011288;28;20034;-43
2022/03/21 14:00:13;;;;;;;30.58;8.80;;;;;;;;;;5010138;28;20077;-43
2022/03/21 14:02:47;;;;;;;27.20;9.48;;;;;;;;;;5012086;28;20099;-44
2022/03/21 14:05:14;;;;;;;32.75;9.57;;;;;;;;;;5011270;28;20030;-44
2022/03/21 14:07:41;;;;;;;26.10;9.40;;;;;;;;;;5011386;28;20376;-44
2022/03/21 14:10:18;;;;;;;24.73;8.43;;;;;;;;;;5011359;28;20515;-43
2022/03/21 14:12:49;;;;;;;25.90;8.98;;;;;;;;;;5011682;28;20072;-44
2022/03/21 14:15:16;;;;;;;24.33;9.00;;;;;;;;;;5011192;28;20108;-45
2022/03/21 14:17:45;;;;;;;25.48;8.40;;;;;;;;;;5011679;28;20034;-45
2022/03/21 14:20:12;;;;;;;29.63;9.02;;;;;;;;;;5009909;28;20053;-43
2022/03/21 14:22:39;;;;;;;24.88;9.13;;;;;;;;;;5012062;28;20022;-42
2022/03/21 14:26:29;;;;;;;26.90;9.15;;;;;;;;;;5010965;28;20100;-44
2022/03/21 14:27:53;;;;;;;23.30;7.95;;;;;;;;;;5011393;28;20192;-44
2022/03/21 14:30:20;;;;;;;20.42;7.80;;;;;;;;;;5010225;28;20456;-45
2022/03/21 14:32:48;;;;;;;23.48;7.88;;;;;;;;;;5011962;28;20116;-43
2022/03/21 14:35:15;;;;;;;26.77;7.93;;;;;;;;;;5011131;28;20037;-46
2022/03/21 14:37:42;;;;;;;29.98;7.45;;;;;;;;;;5011313;28;20030;-42
2022/03/21 14:40:14;;;;;;;;;;;;;;;;;;5011698;28;20093;-45
2022/03/21 14:42:41;;;;;;;18.52;6.57;;;;;;;;;;5009493;28;19917;-42
2022/03/21 14:45:09;;;;;;;20.70;6.60;;;;;;;;;;5011919;28;20511;-44
2022/03/21 14:47:36;;;;;;;19.02;6.65;;;;;;;;;;4994157;28;20097;-44
2022/03/21 14:50:04;;;;;;;18.50;7.43;;;;;;;;;;5010914;28;20036;-43
2022/03/21 14:52:31;;;;;;;21.30;6.55;;;;;;;;;;5010088;28;20499;-44
2022/03/21 14:54:58;;;;;;;22.13;6.55;;;;;;;;;;5011580;28;20065;-44
2022/03/21 14:57:25;;;;;;;17.67;6.45;;;;;;;;;;4993215;28;20036;-44
2022/03/21 14:59:52;;;;;;;16.23;5.88;;;;;;;;;;5011475;28;20060;-45
2022/03/21 15:02:19;;;;;;;17.42;6.03;;;;;;;;;;5010127;28;20038;-44
2022/03/21 15:04:46;;;;;;;18.05;6.15;;;;;;;;;;5011212;28;20103;-43
2022/03/21 15:07:14;;;;;;;14.60;5.57;;;;;;;;;;5011586;28;20072;-44
2022/03/21 15:12:27;;;;;;;13.02;5.53;;;;;;;;;;5011006;28;20573;-47
2022/03/21 15:14:54;;;;;;;17.25;5.40;;;;;;;;;;5010346;28;20038;-44
2022/03/21 15:17:21;;;;;;;17.25;5.90;;;;;;;;;;5011484;28;20484;-46
2022/03/21 15:19:48;;;;;;;19.23;5.90;;;;;;;;;;5010913;28;20036;-45
2022/03/21 15:22:15;;;;;;;20.17;5.32;;;;;;;;;;5011131;28;20564;-47
2022/03/21 15:24:42;;;;;;;25.88;5.57;;;;;;;;;;5018913;28;20466;-43